createdAt,value
2017-06-25T00:02:24.393Z,99.90
2017-06-25T00:04:52.176Z,99.90
2017-06-25T00:07:19.952Z,99.90
2017-06-25T00:09:47.755Z,99.90
2017-06-25T00:12:16.256Z,99.90
2017-06-25T00:14:43.996Z,99.90
2017-06-25T00:17:12.536Z,99.90
2017-06-25T00:19:40.273Z,99.90
2017-06-25T00:22:08.065Z,99.90
2017-06-25T00:24:35.804Z,99.90
2017-06-25T00:27:03.549Z,99.90
2017-06-25T00:29:31.325Z,99.90
2017-06-25T00:31:59.066Z,99.90
2017-06-25T00:34:26.845Z,99.90
2017-06-25T00:36:54.604Z,99.90
2017-06-25T00:39:22.339Z,99.90
2017-06-25T00:41:50.868Z,99.90
2017-06-25T00:44:18.612Z,99.90
2017-06-25T00:46:46.505Z,99.90
2017-06-25T00:49:14.258Z,99.90
2017-06-25T00:51:42.004Z,99.90
2017-06-25T00:54:15.536Z,99.90
2017-06-25T00:56:43.278Z,99.90
2017-06-25T00:59:11.061Z,99.90
2017-06-25T01:01:38.806Z,99.90
2017-06-25T01:04:06.545Z,99.90
2017-06-25T01:06:34.304Z,99.90
2017-06-25T01:09:02.059Z,99.90
2017-06-25T01:11:29.837Z,99.90
2017-06-25T01:13:57.583Z,99.90
2017-06-25T01:16:25.319Z,99.90
2017-06-25T01:18:53.089Z,99.90
2017-06-25T01:21:20.861Z,99.90
2017-06-25T01:23:48.649Z,99.90
2017-06-25T01:26:16.392Z,99.90
2017-06-25T01:28:44.140Z,99.90
2017-06-25T01:31:11.921Z,99.90
2017-06-25T01:33:39.659Z,99.90
2017-06-25T01:36:07.436Z,99.90
2017-06-25T01:38:35.172Z,99.90
2017-06-25T01:41:02.917Z,99.90
2017-06-25T01:43:31.466Z,99.90
2017-06-25T01:45:59.210Z,99.90
2017-06-25T01:48:27.000Z,99.90
2017-06-25T01:50:54.736Z,99.90
2017-06-25T01:53:22.476Z,99.90
2017-06-25T01:55:50.249Z,99.90
2017-06-25T01:58:17.985Z,99.90
2017-06-25T02:00:45.766Z,99.90
2017-06-25T02:03:13.505Z,99.90
2017-06-25T02:05:41.243Z,99.90
2017-06-25T02:08:09.773Z,99.90
2017-06-25T02:10:37.508Z,99.90
2017-06-25T02:13:05.292Z,99.90
2017-06-25T02:15:33.039Z,99.90
2017-06-25T02:18:00.785Z,99.90
2017-06-25T02:20:28.569Z,99.90
2017-06-25T02:22:56.313Z,99.90
2017-06-25T02:25:24.123Z,99.90
2017-06-25T02:27:51.884Z,99.90
2017-06-25T02:30:19.637Z,99.90
2017-06-25T02:32:47.414Z,99.90
2017-06-25T02:35:15.170Z,99.90
2017-06-25T02:37:42.952Z,99.90
2017-06-25T02:40:10.706Z,99.90
2017-06-25T02:42:38.452Z,99.90
2017-06-25T02:45:06.236Z,99.90
2017-06-25T02:47:34.747Z,99.90
2017-06-25T02:50:02.524Z,99.90
2017-06-25T02:52:30.261Z,99.90
2017-06-25T02:54:58.020Z,99.90
2017-06-25T02:57:25.785Z,99.90
2017-06-25T02:59:53.527Z,99.90
2017-06-25T03:02:22.064Z,99.90
2017-06-25T03:04:49.800Z,99.90
2017-06-25T03:07:17.540Z,99.90
2017-06-25T03:09:49.948Z,99.90
2017-06-25T03:12:17.683Z,99.90
2017-06-25T03:14:45.465Z,99.30
2017-06-25T03:17:13.205Z,98.80
2017-06-25T03:19:40.940Z,98.50
2017-06-25T03:22:09.490Z,98.10
2017-06-25T03:24:37.225Z,98.10
2017-06-25T03:27:04.989Z,96.30
2017-06-25T03:29:32.720Z,92.60
2017-06-25T03:32:00.458Z,85.40
2017-06-25T03:34:28.219Z,78.60
2017-06-25T03:36:55.962Z,74.20
2017-06-25T03:39:23.735Z,68.40
2017-06-25T03:41:52.520Z,62.70
2017-06-25T03:44:20.256Z,60.00
2017-06-25T03:46:48.019Z,56.50
2017-06-25T03:49:15.756Z,52.10
2017-06-25T03:51:43.536Z,48.90
2017-06-25T03:54:11.278Z,44.50
2017-06-25T03:56:39.009Z,41.10
2017-06-25T03:59:07.538Z,41.20
2017-06-25T04:01:35.267Z,41.10
2017-06-25T04:04:03.056Z,37.60
2017-06-25T04:06:30.792Z,35.60
2017-06-25T04:08:58.529Z,36.40
2017-06-25T04:11:27.060Z,33.30
2017-06-25T04:13:54.805Z,33.10
2017-06-25T04:16:22.572Z,30.90
2017-06-25T04:18:50.308Z,29.30
2017-06-25T04:21:18.048Z,30.50
2017-06-25T04:23:46.580Z,28.70
2017-06-25T04:26:14.322Z,28.70
2017-06-25T04:28:42.099Z,28.40
2017-06-25T04:31:09.832Z,27.70
2017-06-25T04:33:37.576Z,26.60
2017-06-25T04:36:06.105Z,26.60
2017-06-25T04:38:33.841Z,26.60
2017-06-25T04:41:01.621Z,26.70
2017-06-25T04:43:29.361Z,27.30
2017-06-25T04:45:57.093Z,26.10
2017-06-25T04:48:25.629Z,26.40
2017-06-25T04:50:53.358Z,26.40
2017-06-25T04:53:21.139Z,26.70
2017-06-25T04:55:48.879Z,26.40
2017-06-25T04:58:16.616Z,26.10
2017-06-25T05:00:44.384Z,25.30
2017-06-25T05:03:12.111Z,25.00
2017-06-25T05:05:39.900Z,25.30
2017-06-25T05:08:08.401Z,25.30
2017-06-25T05:10:36.137Z,25.30
2017-06-25T05:13:04.711Z,26.00
2017-06-25T05:15:33.215Z,25.30
2017-06-25T05:18:00.986Z,24.90
2017-06-25T05:20:28.715Z,25.50
2017-06-25T05:22:56.448Z,25.20
2017-06-25T05:25:24.205Z,24.90
2017-06-25T05:27:51.936Z,23.50
2017-06-25T05:30:19.712Z,23.70
2017-06-25T05:32:47.448Z,22.60
2017-06-25T05:35:15.180Z,21.50
2017-06-25T05:37:42.944Z,20.40
2017-06-25T05:40:10.681Z,19.70
2017-06-25T05:42:38.452Z,19.40
2017-06-25T05:45:06.192Z,18.60
2017-06-25T05:47:33.923Z,17.90
2017-06-25T05:50:01.689Z,17.40
2017-06-25T05:52:29.422Z,18.20
2017-06-25T05:54:57.956Z,16.00
2017-06-25T05:57:25.687Z,16.00
2017-06-25T05:59:53.436Z,16.40
2017-06-25T06:02:21.208Z,16.90
2017-06-25T06:05:16.266Z,17.00
2017-06-25T06:07:44.045Z,16.30
2017-06-25T06:10:12.540Z,15.70
2017-06-25T06:12:40.373Z,15.70
2017-06-25T06:15:08.150Z,15.40
2017-06-25T06:17:36.652Z,16.60
2017-06-25T06:20:04.434Z,16.60
2017-06-25T06:22:32.175Z,15.60
2017-06-25T06:24:59.916Z,14.80
2017-06-25T06:27:28.451Z,13.80
2017-06-25T06:29:56.189Z,13.80
2017-06-25T06:32:23.957Z,13.50
2017-06-25T06:34:51.712Z,13.80
2017-06-25T06:37:19.448Z,13.00
2017-06-25T06:39:47.207Z,12.90
2017-06-25T06:42:14.939Z,11.80
2017-06-25T06:44:42.704Z,12.40
2017-06-25T06:47:10.432Z,13.50
2017-06-25T06:49:38.168Z,13.40
2017-06-25T06:52:05.937Z,13.50
2017-06-25T06:54:33.672Z,13.40
2017-06-25T06:57:01.442Z,13.30
2017-06-25T06:59:29.180Z,12.20
2017-06-25T07:01:57.715Z,10.10
2017-06-25T07:04:25.485Z,10.00
2017-06-25T07:06:53.220Z,10.10
2017-06-25T07:09:21.018Z,10.40
2017-06-25T07:11:48.749Z,10.30
2017-06-25T07:14:16.481Z,9.90
2017-06-25T07:16:44.259Z,8.90
2017-06-25T07:19:11.991Z,9.90
2017-06-25T07:21:40.525Z,8.20
2017-06-25T07:24:08.260Z,8.20
2017-06-25T07:26:35.991Z,8.30
2017-06-25T07:29:04.517Z,8.50
2017-06-25T07:31:32.244Z,8.50
2017-06-25T07:34:00.011Z,8.60
2017-06-25T07:36:27.732Z,8.30
2017-06-25T07:38:55.464Z,9.30
2017-06-25T07:41:23.219Z,8.90
2017-06-25T07:43:50.944Z,8.20
2017-06-25T07:46:18.717Z,8.80
2017-06-25T07:48:46.443Z,8.60
2017-06-25T07:51:14.936Z,9.90
2017-06-25T07:53:42.711Z,9.80
2017-06-25T07:56:10.453Z,9.20
2017-06-25T07:58:38.218Z,8.40
2017-06-25T08:01:05.945Z,8.80
2017-06-25T08:03:33.678Z,9.00
2017-06-25T08:06:01.432Z,8.60
2017-06-25T08:08:29.161Z,9.90
2017-06-25T08:10:56.937Z,11.50
2017-06-25T08:13:24.668Z,11.80
2017-06-25T08:15:53.161Z,10.30
2017-06-25T08:18:20.920Z,10.30
2017-06-25T08:20:48.643Z,8.70
2017-06-25T08:23:16.413Z,8.50
2017-06-25T08:25:44.146Z,7.40
2017-06-25T08:28:11.868Z,6.90
2017-06-25T08:30:39.617Z,8.30
2017-06-25T08:33:08.120Z,8.30
2017-06-25T08:35:35.907Z,8.30
2017-06-25T08:38:03.637Z,7.60
2017-06-25T08:40:31.383Z,8.20
2017-06-25T08:42:59.144Z,8.90
2017-06-25T08:45:26.900Z,8.90
2017-06-25T08:47:55.578Z,8.10
2017-06-25T08:50:24.081Z,8.90
2017-06-25T08:52:51.804Z,8.80
2017-06-25T08:55:19.563Z,10.20
2017-06-25T08:57:47.292Z,12.30
2017-06-25T09:00:15.066Z,12.80
2017-06-25T09:02:42.808Z,12.00
2017-06-25T09:05:10.543Z,13.90
2017-06-25T09:07:38.302Z,15.50
2017-06-25T09:10:06.078Z,16.60
2017-06-25T09:12:33.848Z,16.10
2017-06-25T09:15:01.585Z,16.50
2017-06-25T09:17:29.319Z,19.30
2017-06-25T09:19:57.847Z,20.10
2017-06-25T09:22:25.594Z,20.00
2017-06-25T09:24:53.388Z,18.90
2017-06-25T09:27:21.124Z,16.20
2017-06-25T09:29:48.875Z,14.80
2017-06-25T09:32:16.633Z,14.80
2017-06-25T09:34:44.397Z,14.70
2017-06-25T09:37:12.189Z,17.10
2017-06-25T09:39:39.920Z,17.80
2017-06-25T09:42:07.689Z,19.40
2017-06-25T09:44:35.452Z,19.10
2017-06-25T09:47:03.188Z,19.50
2017-06-25T09:49:30.975Z,19.10
2017-06-25T09:51:58.708Z,19.30
2017-06-25T09:54:26.453Z,19.10
2017-06-25T09:56:54.984Z,20.60
2017-06-25T09:59:22.716Z,20.30
2017-06-25T10:01:50.496Z,21.00
2017-06-25T10:04:18.237Z,20.60
2017-06-25T10:06:45.976Z,21.00
2017-06-25T10:09:14.506Z,19.90
2017-06-25T10:11:42.243Z,19.90
2017-06-25T10:14:10.027Z,20.00
2017-06-25T10:16:37.765Z,18.80
2017-06-25T10:19:05.508Z,19.00
2017-06-25T10:21:34.077Z,19.80
2017-06-25T10:24:02.587Z,19.80
2017-06-25T10:26:30.365Z,19.80
2017-06-25T10:28:58.110Z,19.40
2017-06-25T10:31:25.859Z,20.30
2017-06-25T10:33:53.640Z,19.60
2017-06-25T10:36:21.377Z,19.30
2017-06-25T10:38:49.916Z,19.60
2017-06-25T10:41:17.656Z,19.80
2017-06-25T10:43:45.406Z,19.60
2017-06-25T10:46:13.170Z,19.80
2017-06-25T10:48:40.909Z,19.90
2017-06-25T10:51:08.687Z,19.60
2017-06-25T10:53:36.424Z,19.60
2017-06-25T10:56:04.169Z,19.70
2017-06-25T10:58:32.708Z,20.30
2017-06-25T11:01:00.442Z,19.80
2017-06-25T11:03:28.221Z,19.60
2017-06-25T11:05:55.955Z,19.70
2017-06-25T11:08:23.692Z,20.50
2017-06-25T11:10:51.465Z,21.10
2017-06-25T11:13:19.199Z,21.10
2017-06-25T11:15:46.979Z,21.90
2017-06-25T11:18:15.486Z,21.40
2017-06-25T11:20:43.232Z,21.50
2017-06-25T11:23:11.000Z,21.50
2017-06-25T11:25:38.749Z,22.20
2017-06-25T11:28:07.296Z,21.90
2017-06-25T11:30:35.040Z,21.90
2017-06-25T11:33:02.797Z,21.80
2017-06-25T11:35:30.568Z,22.00
2017-06-25T11:37:58.320Z,21.80
2017-06-25T11:40:26.111Z,22.20
2017-06-25T11:42:53.859Z,22.70
2017-06-25T11:45:21.596Z,22.70
2017-06-25T11:47:49.383Z,22.80
2017-06-25T11:50:17.128Z,23.30
2017-06-25T11:52:45.009Z,23.70
2017-06-25T11:55:12.754Z,23.60
2017-06-25T11:57:40.493Z,23.50
2017-06-25T12:00:08.260Z,24.00
2017-06-25T12:02:36.076Z,23.90
2017-06-25T12:05:04.621Z,23.70
2017-06-25T12:07:32.363Z,23.30
2017-06-25T12:10:00.100Z,23.60
2017-06-25T12:12:27.901Z,22.90
2017-06-25T12:14:55.637Z,23.10
2017-06-25T12:17:23.414Z,22.80
2017-06-25T12:19:51.147Z,23.60
2017-06-25T12:22:18.881Z,23.70
2017-06-25T12:24:46.652Z,23.90
2017-06-25T12:27:15.156Z,23.70
2017-06-25T12:29:42.936Z,23.70
2017-06-25T12:32:10.670Z,23.90
2017-06-25T12:34:38.403Z,23.00
2017-06-25T12:37:06.165Z,22.70
2017-06-25T12:39:34.668Z,22.90
2017-06-25T12:42:02.446Z,22.60
2017-06-25T12:44:30.194Z,22.40
2017-06-25T12:46:57.936Z,22.50
2017-06-25T12:49:26.475Z,21.60
2017-06-25T12:51:54.213Z,21.50
2017-06-25T12:54:21.993Z,21.20
2017-06-25T12:56:49.731Z,21.00
2017-06-25T12:59:17.464Z,20.90
2017-06-25T13:01:46.002Z,20.40
2017-06-25T13:04:13.742Z,20.30
2017-06-25T13:06:41.544Z,20.60
2017-06-25T13:09:09.284Z,20.40
2017-06-25T13:11:37.021Z,19.70
2017-06-25T13:14:04.787Z,20.50
2017-06-25T13:16:32.527Z,21.10
2017-06-25T13:19:00.333Z,21.10
2017-06-25T13:21:28.073Z,21.20
2017-06-25T13:23:55.816Z,22.00
2017-06-25T13:26:23.584Z,23.00
2017-06-25T13:28:51.325Z,21.90
2017-06-25T13:31:19.860Z,21.30
2017-06-25T13:33:47.593Z,21.30
2017-06-25T13:36:15.334Z,20.70
2017-06-25T13:38:43.105Z,21.20
2017-06-25T13:41:10.835Z,21.20
2017-06-25T13:43:39.371Z,20.20
2017-06-25T13:46:07.125Z,20.20
2017-06-25T13:48:34.860Z,20.90
2017-06-25T13:51:02.623Z,21.40
2017-06-25T13:53:30.360Z,21.50
2017-06-25T13:55:58.130Z,22.00
2017-06-25T13:58:26.630Z,22.40
2017-06-25T14:00:54.364Z,22.40
2017-06-25T14:03:22.162Z,21.80
2017-06-25T14:05:49.892Z,22.00
2017-06-25T14:08:18.429Z,21.40
2017-06-25T14:10:46.165Z,21.40
2017-06-25T14:13:13.901Z,22.00
2017-06-25T14:15:41.674Z,22.20
2017-06-25T14:18:09.408Z,22.10
2017-06-25T14:20:37.948Z,21.60
2017-06-25T14:23:05.678Z,21.50
2017-06-25T14:25:33.411Z,21.70
2017-06-25T14:28:01.931Z,22.70
2017-06-25T14:30:29.661Z,22.70
2017-06-25T14:32:58.201Z,23.20
2017-06-25T14:35:25.937Z,23.10
2017-06-25T14:37:53.671Z,22.60
2017-06-25T14:40:21.436Z,22.30
2017-06-25T14:42:49.178Z,22.80
2017-06-25T14:45:17.717Z,23.20
2017-06-25T14:47:45.453Z,23.40
2017-06-25T14:50:13.201Z,22.80
2017-06-25T14:52:40.973Z,22.70
2017-06-25T14:55:08.704Z,22.70
2017-06-25T14:57:36.492Z,22.50
2017-06-25T15:00:04.263Z,22.90
2017-06-25T15:02:32.041Z,23.10
2017-06-25T15:04:59.810Z,22.40
2017-06-25T15:07:27.544Z,23.10
2017-06-25T15:09:55.317Z,23.30
2017-06-25T15:12:23.053Z,23.60
2017-06-25T15:14:50.793Z,23.90
2017-06-25T15:17:19.324Z,24.40
2017-06-25T15:19:47.055Z,24.40
2017-06-25T15:22:14.825Z,24.00
2017-06-25T15:24:42.555Z,23.80
2017-06-25T15:27:11.056Z,23.90
2017-06-25T15:29:38.823Z,23.90
2017-06-25T15:32:06.561Z,23.60
2017-06-25T15:34:34.336Z,23.50
2017-06-25T15:37:02.068Z,23.60
2017-06-25T15:39:30.567Z,23.50
2017-06-25T15:41:58.334Z,23.50
2017-06-25T15:44:26.089Z,23.80
2017-06-25T15:46:53.882Z,23.90
2017-06-25T15:49:21.640Z,23.40
2017-06-25T15:51:49.380Z,23.80
2017-06-25T15:54:17.156Z,23.80
2017-06-25T15:56:44.899Z,24.10
2017-06-25T15:59:12.688Z,24.20
2017-06-25T16:01:40.417Z,24.50
2017-06-25T16:04:08.152Z,24.40
2017-06-25T16:06:36.676Z,23.70
2017-06-25T16:09:04.435Z,23.60
2017-06-25T16:11:32.225Z,23.60
2017-06-25T16:13:59.964Z,23.60
2017-06-25T16:16:27.691Z,23.10
2017-06-25T16:18:56.217Z,23.10
2017-06-25T16:21:23.952Z,23.10
2017-06-25T16:23:51.726Z,23.50
2017-06-25T16:26:19.459Z,23.10
2017-06-25T16:28:47.188Z,23.30
2017-06-25T16:31:14.958Z,22.90
2017-06-25T16:33:42.712Z,23.10
2017-06-25T16:36:11.261Z,23.60
2017-06-25T16:38:39.008Z,23.60
2017-06-25T16:41:06.746Z,23.40
2017-06-25T16:43:34.528Z,23.70
2017-06-25T16:46:02.257Z,23.90
2017-06-25T16:48:30.796Z,23.30
2017-06-25T16:50:58.531Z,23.30
2017-06-25T16:53:26.265Z,23.30
2017-06-25T16:55:54.036Z,23.70
2017-06-25T16:58:21.773Z,24.00
2017-06-25T17:00:50.317Z,24.80
2017-06-25T17:03:18.059Z,24.80
2017-06-25T17:05:45.793Z,24.80
2017-06-25T17:08:13.565Z,25.20
2017-06-25T17:10:41.305Z,24.70
2017-06-25T17:13:09.843Z,25.30
2017-06-25T17:15:37.588Z,25.20
2017-06-25T17:18:05.322Z,25.40
2017-06-25T17:20:33.095Z,25.40
2017-06-25T17:23:00.833Z,27.60
2017-06-25T17:25:28.612Z,29.20
2017-06-25T17:27:56.352Z,30.90
2017-06-25T17:30:24.839Z,32.60
2017-06-25T17:32:52.599Z,32.50
2017-06-25T17:35:20.333Z,33.50
2017-06-25T17:37:48.103Z,34.50
2017-06-25T17:40:16.604Z,36.50
2017-06-25T17:42:44.332Z,36.40
2017-06-25T17:45:12.208Z,37.50
2017-06-25T17:47:40.703Z,39.50
2017-06-25T17:50:08.476Z,39.50
2017-06-25T17:52:36.228Z,40.30
2017-06-25T17:55:03.975Z,41.00
2017-06-25T17:57:32.500Z,42.80
2017-06-25T18:00:00.232Z,42.80
2017-06-25T18:02:28.005Z,43.50
2017-06-25T18:04:55.755Z,44.20
2017-06-25T18:07:23.500Z,44.60
2017-06-25T18:09:52.029Z,45.80
2017-06-25T18:12:19.763Z,45.70
2017-06-25T18:14:47.532Z,46.30
2017-06-25T18:17:15.265Z,46.10
2017-06-25T18:19:43.769Z,46.20
2017-06-25T18:22:11.550Z,46.20
2017-06-25T18:24:39.292Z,46.50
2017-06-25T18:27:07.059Z,46.70
2017-06-25T18:29:34.827Z,47.10
2017-06-25T18:32:02.559Z,47.10
2017-06-25T18:34:30.325Z,47.30
2017-06-25T18:36:58.060Z,47.50
2017-06-25T18:39:26.815Z,47.40
2017-06-25T18:41:54.559Z,47.40
2017-06-25T18:44:22.288Z,47.30
2017-06-25T18:46:50.047Z,46.60
2017-06-25T18:49:17.780Z,46.70
2017-06-25T18:51:45.549Z,46.70
2017-06-25T18:54:14.044Z,46.90
2017-06-25T18:56:41.776Z,46.90
2017-06-25T18:59:09.545Z,46.80
2017-06-25T19:01:38.046Z,46.60
2017-06-25T19:04:05.816Z,46.50
2017-06-25T19:06:33.543Z,46.30
2017-06-25T19:09:01.281Z,46.20
2017-06-25T19:11:29.052Z,46.00
2017-06-25T19:13:56.784Z,45.40
2017-06-25T19:16:24.552Z,45.60
2017-06-25T19:18:52.300Z,45.80
2017-06-25T19:21:20.030Z,45.30
2017-06-25T19:23:47.800Z,45.70
2017-06-25T19:26:15.547Z,45.80
2017-06-25T19:28:44.090Z,45.60
2017-06-25T19:31:11.824Z,45.60
2017-06-25T19:33:39.571Z,45.90
2017-06-25T19:36:07.339Z,49.90
2017-06-25T19:38:35.084Z,56.10
2017-06-25T19:41:02.876Z,63.40
2017-06-25T19:43:30.615Z,67.70
2017-06-25T19:45:58.349Z,69.00
2017-06-25T19:48:26.889Z,71.30
2017-06-25T19:50:54.619Z,71.30
2017-06-25T19:53:22.388Z,74.40
2017-06-25T19:55:50.126Z,75.70
2017-06-25T19:58:17.869Z,76.90
2017-06-25T20:00:46.401Z,78.90
2017-06-25T20:03:14.145Z,78.20
2017-06-25T20:05:41.910Z,79.60
2017-06-25T20:08:09.651Z,80.80
2017-06-25T20:10:37.396Z,81.20
2017-06-25T20:13:05.923Z,82.00
2017-06-25T20:15:33.652Z,82.00
2017-06-25T20:18:01.437Z,83.10
2017-06-25T20:20:29.183Z,82.80
2017-06-25T20:22:56.924Z,82.40
2017-06-25T20:25:25.453Z,84.10
2017-06-25T20:27:53.185Z,84.10
2017-06-25T20:30:20.955Z,83.30
2017-06-25T20:32:48.689Z,83.70
2017-06-25T20:35:17.188Z,82.40
2017-06-25T20:37:44.955Z,82.40
2017-06-25T20:40:12.689Z,82.70
2017-06-25T20:42:41.226Z,83.10
2017-06-25T20:45:08.965Z,83.00
2017-06-25T20:47:36.701Z,82.40
2017-06-25T20:50:04.472Z,82.40
2017-06-25T20:52:32.201Z,81.70
2017-06-25T20:55:00.737Z,81.10
2017-06-25T20:57:28.468Z,80.50
2017-06-25T20:59:56.206Z,80.50
2017-06-25T21:02:24.744Z,80.60
2017-06-25T21:04:52.485Z,80.60
2017-06-25T21:07:20.253Z,80.60
2017-06-25T21:09:48.039Z,80.20
2017-06-25T21:12:15.820Z,80.40
2017-06-25T21:14:44.356Z,80.70
2017-06-25T21:17:12.093Z,80.70
2017-06-25T21:19:39.867Z,80.40
2017-06-25T21:22:07.600Z,81.10
2017-06-25T21:24:36.106Z,82.20
2017-06-25T21:27:03.868Z,82.10
2017-06-25T21:29:31.604Z,81.90
2017-06-25T21:31:59.376Z,82.40
2017-06-25T21:34:27.104Z,83.20
2017-06-25T21:36:54.844Z,84.20
2017-06-25T21:39:22.606Z,83.90
2017-06-25T21:41:50.344Z,84.50
2017-06-25T21:44:18.111Z,84.50
2017-06-25T21:46:45.846Z,85.00
2017-06-25T21:49:13.581Z,85.00
2017-06-25T21:51:42.108Z,86.10
2017-06-25T21:54:09.844Z,86.10
2017-06-25T21:56:37.628Z,86.40
2017-06-25T21:59:05.393Z,86.90
2017-06-25T22:01:33.125Z,87.00
2017-06-25T22:04:00.883Z,87.50
2017-06-25T22:06:28.626Z,88.60
2017-06-25T22:08:57.165Z,89.00
2017-06-25T22:11:24.896Z,88.80
2017-06-25T22:13:52.636Z,89.90
2017-06-25T22:16:21.166Z,90.50
2017-06-25T22:18:48.890Z,90.40
2017-06-25T22:21:16.908Z,90.90
2017-06-25T22:23:44.639Z,91.00
2017-06-25T22:26:12.368Z,91.10
2017-06-25T22:28:40.132Z,91.70
2017-06-25T22:31:07.861Z,91.70
2017-06-25T22:33:35.639Z,91.70
2017-06-25T22:36:04.136Z,92.30
2017-06-25T22:38:31.869Z,92.10
2017-06-25T22:40:59.637Z,92.50
2017-06-25T22:43:28.145Z,93.10
2017-06-25T22:45:55.919Z,92.60
2017-06-25T22:48:23.648Z,92.60
2017-06-25T22:50:52.147Z,92.40
2017-06-25T22:53:19.903Z,92.40
2017-06-25T22:55:47.637Z,92.60
2017-06-25T22:58:16.186Z,93.00
2017-06-25T23:00:43.918Z,93.00
2017-06-25T23:03:11.659Z,93.10
2017-06-25T23:05:39.437Z,93.20
2017-06-25T23:08:07.171Z,93.60
2017-06-25T23:10:35.909Z,93.60
2017-06-25T23:13:03.645Z,93.60
2017-06-25T23:15:31.377Z,93.40
2017-06-25T23:17:59.913Z,93.90
2017-06-25T23:20:27.660Z,93.90
2017-06-25T23:22:55.387Z,94.20
2017-06-25T23:25:23.146Z,94.10
2017-06-25T23:27:50.880Z,94.00
2017-06-25T23:30:18.618Z,94.30
2017-06-25T23:32:46.414Z,94.40
2017-06-25T23:35:14.145Z,94.60
2017-06-25T23:37:41.882Z,94.80
2017-06-25T23:40:09.671Z,95.10
2017-06-25T23:42:37.404Z,95.10
2017-06-25T23:45:05.139Z,95.30
2017-06-25T23:47:32.905Z,95.60
2017-06-25T23:50:00.638Z,95.50
2017-06-25T23:52:28.399Z,95.60
2017-06-25T23:54:56.164Z,95.70
2017-06-25T23:57:24.669Z,95.80
2017-06-25T23:59:52.433Z,95.80
